SAS4040 ENBR-EGPD
Flight info
| Callsign | SAS4040 |
|---|---|
| Flight time | 0h 59m |
| Altitude | 34000 |
| Route | EPOTU DCT RIGVU DCT OVDAN P600 ADN |
| Aircraft | RJ70/M-SDFGIRWY/LB1 |
Departure
| Time | 2026-04-29 16:48 |
|---|---|
| Airport | Bergen Airport, Flesland (ENBR) |
Arrival
| Time | 2026-04-29 17:47 |
|---|---|
| Airport | Aberdeen International Airport (EGPD) |
| Time | Latitude | Longitude | Altitude | Speed | Heading |
|---|---|---|---|---|---|
| 2026-04-29 16:22 | 60.29089 | 5.22633 | 178 ft | 0 kts | 11° |
| 2026-04-29 16:44 | 60.29091 | 5.22637 | 178 ft | 1 kts | 46° |
| 2026-04-29 16:44 | 60.29073 | 5.22650 | 177 ft | 9 kts | 208° |
| 2026-04-29 16:44 | 60.29040 | 5.22498 | 176 ft | 14 kts | 261° |
| 2026-04-29 16:44 | 60.28978 | 5.22383 | 175 ft | 16 kts | 178° |
| 2026-04-29 16:45 | 60.28875 | 5.22294 | 170 ft | 18 kts | 171° |
| 2026-04-29 16:45 | 60.28738 | 5.22341 | 169 ft | 19 kts | 171° |
| 2026-04-29 16:45 | 60.28601 | 5.22383 | 166 ft | 22 kts | 171° |
| 2026-04-29 16:45 | 60.28432 | 5.22440 | 161 ft | 27 kts | 171° |
| 2026-04-29 16:46 | 60.28237 | 5.22505 | 156 ft | 27 kts | 171° |
| 2026-04-29 16:46 | 60.28080 | 5.22529 | 151 ft | 16 kts | 210° |
| 2026-04-29 16:46 | 60.28054 | 5.22406 | 152 ft | 7 kts | 259° |
| 2026-04-29 16:46 | 60.28048 | 5.22326 | 153 ft | 5 kts | 267° |
| 2026-04-29 16:47 | 60.28064 | 5.22256 | 153 ft | 6 kts | 322° |
| 2026-04-29 16:47 | 60.28108 | 5.22230 | 153 ft | 7 kts | 349° |
| 2026-04-29 16:47 | 60.28329 | 5.22157 | 155 ft | 72 kts | 351° |
| 2026-04-29 16:47 | 60.29065 | 5.21906 | 227 ft | 133 kts | 348° |
| 2026-04-29 16:48 | 60.30061 | 5.21588 | 706 ft | 157 kts | 348° |
| 2026-04-29 16:48 | 60.31242 | 5.21143 | 1157 ft | 190 kts | 349° |
| 2026-04-29 16:48 | 60.32640 | 5.20647 | 1613 ft | 215 kts | 350° |
| 2026-04-29 16:48 | 60.34120 | 5.20124 | 2843 ft | 218 kts | 350° |
| 2026-04-29 16:49 | 60.35627 | 5.19596 | 4158 ft | 218 kts | 350° |
| 2026-04-29 16:49 | 60.37146 | 5.19098 | 5391 ft | 224 kts | 349° |
| 2026-04-29 16:49 | 60.38700 | 5.18583 | 6526 ft | 228 kts | 349° |
| 2026-04-29 16:49 | 60.40282 | 5.18037 | 7194 ft | 236 kts | 348° |
| 2026-04-29 16:50 | 60.41902 | 5.17470 | 7071 ft | 234 kts | 349° |
| 2026-04-29 16:50 | 60.43490 | 5.16932 | 6831 ft | 233 kts | 349° |
| 2026-04-29 16:50 | 60.45086 | 5.16399 | 6565 ft | 233 kts | 349° |
| 2026-04-29 16:50 | 60.46691 | 5.15788 | 7188 ft | 235 kts | 341° |
| 2026-04-29 16:51 | 60.47982 | 5.13865 | 7953 ft | 236 kts | 302° |
| 2026-04-29 16:51 | 60.48394 | 5.10646 | 8752 ft | 243 kts | 266° |
| 2026-04-29 16:51 | 60.47771 | 5.07444 | 9569 ft | 253 kts | 233° |
| 2026-04-29 16:51 | 60.46377 | 5.05179 | 10393 ft | 261 kts | 216° |
| 2026-04-29 16:52 | 60.44846 | 5.03139 | 11136 ft | 266 kts | 217° |
| 2026-04-29 16:52 | 60.43306 | 5.01039 | 11879 ft | 274 kts | 218° |
| 2026-04-29 16:52 | 60.41705 | 4.98764 | 12680 ft | 282 kts | 219° |
| 2026-04-29 16:52 | 60.40129 | 4.96396 | 13447 ft | 289 kts | 221° |
| 2026-04-29 16:53 | 60.38536 | 4.93868 | 14249 ft | 293 kts | 223° |
| 2026-04-29 16:53 | 60.36921 | 4.91201 | 14977 ft | 297 kts | 223° |
| 2026-04-29 16:53 | 60.35332 | 4.88510 | 15691 ft | 300 kts | 224° |
| 2026-04-29 16:53 | 60.33747 | 4.85796 | 16439 ft | 302 kts | 224° |
| 2026-04-29 16:54 | 60.32146 | 4.83038 | 17199 ft | 303 kts | 224° |
| 2026-04-29 16:54 | 60.30542 | 4.80274 | 17973 ft | 303 kts | 224° |
| 2026-04-29 16:54 | 60.28943 | 4.77518 | 18766 ft | 301 kts | 224° |
| 2026-04-29 16:54 | 60.27350 | 4.74776 | 19474 ft | 299 kts | 224° |
| 2026-04-29 16:55 | 60.25776 | 4.72069 | 20182 ft | 296 kts | 224° |
| 2026-04-29 16:55 | 60.24208 | 4.69378 | 20911 ft | 293 kts | 224° |
| 2026-04-29 16:55 | 60.22694 | 4.66777 | 21644 ft | 288 kts | 224° |
| 2026-04-29 16:55 | 60.21180 | 4.64179 | 22404 ft | 283 kts | 224° |
| 2026-04-29 16:56 | 60.19698 | 4.61641 | 23181 ft | 276 kts | 224° |
| 2026-04-29 16:56 | 60.18249 | 4.59165 | 23971 ft | 269 kts | 224° |
| 2026-04-29 16:56 | 60.16848 | 4.56770 | 24655 ft | 260 kts | 224° |
| 2026-04-29 16:56 | 60.15453 | 4.54391 | 24902 ft | 272 kts | 224° |
| 2026-04-29 16:57 | 60.13989 | 4.51871 | 24914 ft | 290 kts | 224° |
| 2026-04-29 16:57 | 60.12416 | 4.49150 | 24956 ft | 306 kts | 224° |
| 2026-04-29 16:57 | 60.10754 | 4.46309 | 25004 ft | 320 kts | 223° |
| 2026-04-29 16:57 | 60.09033 | 4.43379 | 25077 ft | 329 kts | 223° |
| 2026-04-29 16:58 | 60.07293 | 4.40416 | 25490 ft | 327 kts | 223° |
| 2026-04-29 16:58 | 60.05558 | 4.37472 | 25862 ft | 326 kts | 223° |
| 2026-04-29 16:58 | 60.03814 | 4.34566 | 26223 ft | 325 kts | 223° |
| 2026-04-29 16:58 | 60.02079 | 4.31655 | 26564 ft | 326 kts | 223° |
| 2026-04-29 16:59 | 60.00333 | 4.28713 | 26758 ft | 330 kts | 223° |
| 2026-04-29 16:59 | 59.98578 | 4.25749 | 27085 ft | 329 kts | 223° |
| 2026-04-29 16:59 | 59.96821 | 4.22808 | 27407 ft | 329 kts | 222° |
| 2026-04-29 16:59 | 59.95085 | 4.19928 | 27719 ft | 328 kts | 223° |
| 2026-04-29 17:00 | 59.93337 | 4.17003 | 28045 ft | 327 kts | 223° |
| 2026-04-29 17:00 | 59.91592 | 4.14076 | 28360 ft | 327 kts | 223° |
| 2026-04-29 17:00 | 59.89850 | 4.11160 | 28671 ft | 326 kts | 223° |
| 2026-04-29 17:00 | 59.88115 | 4.08258 | 28974 ft | 325 kts | 223° |
| 2026-04-29 17:01 | 59.86393 | 4.05323 | 29273 ft | 324 kts | 225° |
| 2026-04-29 17:01 | 59.84720 | 4.02317 | 29567 ft | 323 kts | 225° |
| 2026-04-29 17:01 | 59.83079 | 3.99266 | 29854 ft | 323 kts | 226° |
| 2026-04-29 17:01 | 59.81449 | 3.96192 | 30099 ft | 323 kts | 226° |
| 2026-04-29 17:02 | 59.79819 | 3.93131 | 30389 ft | 321 kts | 226° |
| 2026-04-29 17:02 | 59.78218 | 3.90146 | 30712 ft | 318 kts | 225° |
| 2026-04-29 17:02 | 59.76595 | 3.87155 | 30939 ft | 318 kts | 225° |
| 2026-04-29 17:02 | 59.74971 | 3.84171 | 31155 ft | 317 kts | 225° |
| 2026-04-29 17:03 | 59.73352 | 3.81200 | 31366 ft | 317 kts | 225° |
| 2026-04-29 17:03 | 59.71731 | 3.78226 | 31572 ft | 317 kts | 225° |
| 2026-04-29 17:03 | 59.70115 | 3.75262 | 31772 ft | 316 kts | 225° |
| 2026-04-29 17:03 | 59.68501 | 3.72301 | 31945 ft | 317 kts | 225° |
| 2026-04-29 17:04 | 59.65204 | 3.66309 | 31963 ft | 330 kts | 224° |
| 2026-04-29 17:04 | 59.61765 | 3.60072 | 32005 ft | 341 kts | 224° |
| 2026-04-29 17:05 | 59.60000 | 3.56895 | 32106 ft | 344 kts | 224° |
| 2026-04-29 17:05 | 59.58231 | 3.53711 | 32304 ft | 344 kts | 224° |
| 2026-04-29 17:05 | 59.56470 | 3.50520 | 32505 ft | 343 kts | 224° |
| 2026-04-29 17:05 | 59.54693 | 3.47337 | 32662 ft | 344 kts | 224° |
| 2026-04-29 17:06 | 59.52922 | 3.44159 | 32823 ft | 345 kts | 224° |
| 2026-04-29 17:06 | 59.51171 | 3.41019 | 33016 ft | 344 kts | 224° |
| 2026-04-29 17:06 | 59.49398 | 3.37839 | 33208 ft | 344 kts | 224° |
| 2026-04-29 17:06 | 59.47633 | 3.34671 | 33397 ft | 344 kts | 224° |
| 2026-04-29 17:07 | 59.45863 | 3.31495 | 33580 ft | 343 kts | 224° |
| 2026-04-29 17:07 | 59.44099 | 3.28329 | 33769 ft | 343 kts | 224° |
| 2026-04-29 17:07 | 59.42336 | 3.25165 | 33947 ft | 342 kts | 224° |
| 2026-04-29 17:07 | 59.40579 | 3.22009 | 34166 ft | 340 kts | 224° |
| 2026-04-29 17:08 | 59.38842 | 3.18907 | 34415 ft | 334 kts | 223° |
| 2026-04-29 17:08 | 59.37112 | 3.15852 | 34495 ft | 336 kts | 223° |
| 2026-04-29 17:08 | 59.33617 | 3.09694 | 34526 ft | 344 kts | 223° |
| 2026-04-29 17:09 | 59.30027 | 3.03333 | 34536 ft | 352 kts | 223° |
| 2026-04-29 17:09 | 59.26334 | 2.96863 | 34536 ft | 361 kts | 223° |
| 2026-04-29 17:10 | 59.22572 | 2.90276 | 34537 ft | 369 kts | 223° |
| 2026-04-29 17:10 | 59.18701 | 2.83484 | 34539 ft | 377 kts | 223° |
| 2026-04-29 17:11 | 59.14748 | 2.76578 | 34530 ft | 385 kts | 223° |
| 2026-04-29 17:11 | 59.10758 | 2.69625 | 34523 ft | 389 kts | 222° |
| 2026-04-29 17:12 | 59.06714 | 2.62598 | 34518 ft | 391 kts | 222° |
| 2026-04-29 17:12 | 59.03310 | 2.56695 | 34515 ft | 391 kts | 222° |
| 2026-04-29 17:13 | 58.98591 | 2.48527 | 34510 ft | 389 kts | 222° |
| 2026-04-29 17:13 | 58.94546 | 2.41526 | 34513 ft | 389 kts | 222° |
| 2026-04-29 17:14 | 58.90523 | 2.34593 | 34515 ft | 390 kts | 222° |
| 2026-04-29 17:14 | 58.86428 | 2.27647 | 34521 ft | 391 kts | 222° |
| 2026-04-29 17:15 | 58.82353 | 2.20686 | 34519 ft | 390 kts | 221° |
| 2026-04-29 17:15 | 58.78340 | 2.13634 | 34514 ft | 390 kts | 226° |
| 2026-04-29 17:16 | 58.74658 | 2.05960 | 34516 ft | 390 kts | 229° |
| 2026-04-29 17:16 | 58.71066 | 1.98168 | 34518 ft | 391 kts | 229° |
| 2026-04-29 17:17 | 58.67427 | 1.90389 | 34515 ft | 391 kts | 228° |
| 2026-04-29 17:17 | 58.63769 | 1.82653 | 34515 ft | 391 kts | 228° |
| 2026-04-29 17:18 | 58.60111 | 1.74945 | 34516 ft | 390 kts | 228° |
| 2026-04-29 17:18 | 58.56427 | 1.67282 | 34512 ft | 390 kts | 227° |
| 2026-04-29 17:19 | 58.52782 | 1.59669 | 34511 ft | 390 kts | 228° |
| 2026-04-29 17:19 | 58.49088 | 1.52032 | 34512 ft | 390 kts | 227° |
| 2026-04-29 17:20 | 58.45406 | 1.44393 | 34514 ft | 391 kts | 227° |
| 2026-04-29 17:20 | 58.41691 | 1.36804 | 34519 ft | 393 kts | 227° |
| 2026-04-29 17:21 | 58.37980 | 1.29143 | 34519 ft | 393 kts | 227° |
| 2026-04-29 17:21 | 58.34254 | 1.21537 | 34517 ft | 392 kts | 227° |
| 2026-04-29 17:22 | 58.30524 | 1.13946 | 34521 ft | 393 kts | 227° |
| 2026-04-29 17:22 | 58.26791 | 1.06327 | 34520 ft | 393 kts | 227° |
| 2026-04-29 17:23 | 58.23048 | 0.98764 | 34522 ft | 393 kts | 227° |
| 2026-04-29 17:23 | 58.19330 | 0.91247 | 34512 ft | 393 kts | 226° |
| 2026-04-29 17:24 | 58.15579 | 0.83697 | 34517 ft | 393 kts | 226° |
| 2026-04-29 17:24 | 58.12439 | 0.77381 | 34517 ft | 393 kts | 227° |
| 2026-04-29 17:25 | 58.08714 | 0.69900 | 34514 ft | 393 kts | 226° |
| 2026-04-29 17:25 | 58.04962 | 0.62383 | 34517 ft | 393 kts | 226° |
| 2026-04-29 17:26 | 58.01212 | 0.54888 | 34514 ft | 393 kts | 226° |
| 2026-04-29 17:26 | 57.97434 | 0.47434 | 34508 ft | 392 kts | 226° |
| 2026-04-29 17:27 | 57.95838 | 0.43294 | 34526 ft | 392 kts | 243° |
| 2026-04-29 17:27 | 57.94723 | 0.38601 | 34524 ft | 393 kts | 248° |
| 2026-04-29 17:27 | 57.92748 | 0.29070 | 34518 ft | 393 kts | 248° |
| 2026-04-29 17:28 | 57.90690 | 0.19477 | 34509 ft | 395 kts | 246° |
| 2026-04-29 17:28 | 57.88535 | 0.09976 | 34517 ft | 395 kts | 246° |
| 2026-04-29 17:29 | 57.86339 | 0.00487 | 34513 ft | 395 kts | 246° |
| 2026-04-29 17:29 | 57.84143 | -0.09002 | 34509 ft | 397 kts | 245° |
| 2026-04-29 17:30 | 57.81941 | -0.18453 | 34512 ft | 398 kts | 245° |
| 2026-04-29 17:30 | 57.79706 | -0.27973 | 34504 ft | 398 kts | 245° |
| 2026-04-29 17:31 | 57.77486 | -0.37478 | 34498 ft | 398 kts | 246° |
| 2026-04-29 17:31 | 57.75245 | -0.46994 | 34505 ft | 398 kts | 245° |
| 2026-04-29 17:32 | 57.72992 | -0.56466 | 34504 ft | 398 kts | 245° |
| 2026-04-29 17:32 | 57.70747 | -0.65916 | 34007 ft | 397 kts | 244° |
| 2026-04-29 17:33 | 57.69640 | -0.70556 | 33334 ft | 395 kts | 244° |
| 2026-04-29 17:33 | 57.68521 | -0.75238 | 32664 ft | 393 kts | 244° |
| 2026-04-29 17:33 | 57.67413 | -0.79875 | 32025 ft | 390 kts | 244° |
| 2026-04-29 17:33 | 57.66301 | -0.84493 | 31400 ft | 388 kts | 244° |
| 2026-04-29 17:34 | 57.65192 | -0.89083 | 30789 ft | 386 kts | 244° |
| 2026-04-29 17:34 | 57.64093 | -0.93647 | 30025 ft | 386 kts | 244° |
| 2026-04-29 17:34 | 57.62988 | -0.98242 | 29184 ft | 387 kts | 244° |
| 2026-04-29 17:34 | 57.61888 | -1.02828 | 28379 ft | 388 kts | 244° |
| 2026-04-29 17:35 | 57.60048 | -1.10477 | 27080 ft | 389 kts | 244° |
| 2026-04-29 17:35 | 57.58567 | -1.16559 | 26100 ft | 389 kts | 243° |
| 2026-04-29 17:35 | 57.57435 | -1.21138 | 25379 ft | 389 kts | 243° |
| 2026-04-29 17:36 | 57.56302 | -1.25717 | 24665 ft | 389 kts | 243° |
| 2026-04-29 17:36 | 57.55167 | -1.30296 | 23966 ft | 389 kts | 243° |
| 2026-04-29 17:36 | 57.54041 | -1.34877 | 23140 ft | 388 kts | 243° |
| 2026-04-29 17:36 | 57.52922 | -1.39441 | 22331 ft | 388 kts | 243° |
| 2026-04-29 17:37 | 57.51808 | -1.44002 | 21570 ft | 387 kts | 244° |
| 2026-04-29 17:37 | 57.50693 | -1.48559 | 20810 ft | 386 kts | 244° |
| 2026-04-29 17:37 | 57.49568 | -1.53080 | 20074 ft | 384 kts | 243° |
| 2026-04-29 17:37 | 57.48458 | -1.57588 | 19351 ft | 382 kts | 244° |
| 2026-04-29 17:38 | 57.47356 | -1.62069 | 18646 ft | 380 kts | 244° |
| 2026-04-29 17:38 | 57.46257 | -1.66453 | 17850 ft | 377 kts | 243° |
| 2026-04-29 17:38 | 57.45139 | -1.70860 | 17060 ft | 375 kts | 243° |
| 2026-04-29 17:38 | 57.44033 | -1.75235 | 16294 ft | 372 kts | 243° |
| 2026-04-29 17:39 | 57.42958 | -1.79583 | 15560 ft | 369 kts | 243° |
| 2026-04-29 17:39 | 57.41887 | -1.83887 | 14842 ft | 365 kts | 243° |
| 2026-04-29 17:39 | 57.40829 | -1.88137 | 14116 ft | 362 kts | 242° |
| 2026-04-29 17:39 | 57.39761 | -1.92351 | 13329 ft | 358 kts | 242° |
| 2026-04-29 17:40 | 57.38704 | -1.96508 | 12557 ft | 354 kts | 242° |
| 2026-04-29 17:40 | 57.37661 | -2.00615 | 11812 ft | 350 kts | 242° |
| 2026-04-29 17:40 | 57.36627 | -2.04680 | 11086 ft | 346 kts | 242° |
| 2026-04-29 17:40 | 57.35676 | -2.08476 | 10398 ft | 315 kts | 242° |
| 2026-04-29 17:41 | 57.34802 | -2.12031 | 9600 ft | 293 kts | 246° |
| 2026-04-29 17:41 | 57.34523 | -2.15683 | 8803 ft | 287 kts | 276° |
| 2026-04-29 17:41 | 57.35261 | -2.19024 | 8053 ft | 281 kts | 307° |
| 2026-04-29 17:41 | 57.36698 | -2.21360 | 7321 ft | 272 kts | 325° |
| 2026-04-29 17:42 | 57.38242 | -2.23310 | 6584 ft | 265 kts | 326° |
| 2026-04-29 17:42 | 57.39725 | -2.25238 | 5829 ft | 257 kts | 315° |
| 2026-04-29 17:42 | 57.40585 | -2.28038 | 5159 ft | 248 kts | 278° |
| 2026-04-29 17:42 | 57.40427 | -2.31092 | 4666 ft | 236 kts | 244° |
| 2026-04-29 17:43 | 57.39390 | -2.33333 | 4203 ft | 227 kts | 207° |
| 2026-04-29 17:43 | 57.37911 | -2.34013 | 3803 ft | 219 kts | 173° |
| 2026-04-29 17:43 | 57.36477 | -2.33011 | 3387 ft | 226 kts | 153° |
| 2026-04-29 17:43 | 57.35068 | -2.31649 | 2948 ft | 230 kts | 155° |
| 2026-04-29 17:44 | 57.33635 | -2.30267 | 2531 ft | 233 kts | 154° |
| 2026-04-29 17:44 | 57.32249 | -2.28911 | 2535 ft | 219 kts | 154° |
| 2026-04-29 17:44 | 57.30901 | -2.27701 | 2371 ft | 214 kts | 158° |
| 2026-04-29 17:44 | 57.29566 | -2.26695 | 2092 ft | 199 kts | 160° |
| 2026-04-29 17:45 | 57.28337 | -2.25784 | 1810 ft | 182 kts | 159° |
| 2026-04-29 17:45 | 57.27224 | -2.24952 | 1590 ft | 168 kts | 160° |
| 2026-04-29 17:45 | 57.26182 | -2.24195 | 1400 ft | 152 kts | 161° |
| 2026-04-29 17:45 | 57.25250 | -2.23518 | 1171 ft | 135 kts | 161° |
| 2026-04-29 17:46 | 57.24427 | -2.22906 | 961 ft | 120 kts | 161° |
| 2026-04-29 17:46 | 57.23687 | -2.22365 | 812 ft | 110 kts | 160° |
| 2026-04-29 17:46 | 57.22961 | -2.21818 | 684 ft | 118 kts | 159° |
| 2026-04-29 17:46 | 57.22186 | -2.21252 | 503 ft | 119 kts | 159° |
| 2026-04-29 17:47 | 57.21450 | -2.20673 | 348 ft | 109 kts | 158° |
| 2026-04-29 17:47 | 57.20739 | -2.20177 | 212 ft | 105 kts | 158° |
| 2026-04-29 17:47 | 57.20149 | -2.19744 | 206 ft | 78 kts | 158° |
| 2026-04-29 17:47 | 57.19770 | -2.19466 | 213 ft | 44 kts | 158° |
| 2026-04-29 17:48 | 57.19551 | -2.19305 | 218 ft | 23 kts | 158° |
| 2026-04-29 17:48 | 57.19450 | -2.19253 | 210 ft | 12 kts | 196° |
| 2026-04-29 17:48 | 57.19431 | -2.19364 | 211 ft | 11 kts | 308° |
| 2026-04-29 17:48 | 57.19492 | -2.19467 | 213 ft | 13 kts | 319° |
| 2026-04-29 17:49 | 57.19569 | -2.19589 | 210 ft | 16 kts | 319° |
| 2026-04-29 17:49 | 57.19666 | -2.19708 | 210 ft | 18 kts | 336° |
| 2026-04-29 17:49 | 57.19789 | -2.19800 | 213 ft | 20 kts | 338° |
| 2026-04-29 17:49 | 57.19907 | -2.19936 | 207 ft | 20 kts | 316° |
| 2026-04-29 17:50 | 57.20016 | -2.20095 | 208 ft | 14 kts | 310° |
| 2026-04-29 17:50 | 57.19998 | -2.20166 | 210 ft | 0 kts | 248° |